sensor_id;sensor_type;location;lat;lon;timestamp;P1;durP1;ratioP1;P2;durP2;ratioP2
55007;SDS011;40902;45.116;21.296;2022-12-28T00:00:49;9.48;;;6.28;;
55007;SDS011;40902;45.116;21.296;2022-12-28T00:03:15;12.38;;;6.38;;
55007;SDS011;40902;45.116;21.296;2022-12-28T00:05:42;13.18;;;7.28;;
55007;SDS011;40902;45.116;21.296;2022-12-28T00:08:08;11.98;;;6.85;;
55007;SDS011;40902;45.116;21.296;2022-12-28T00:10:34;12.18;;;7.45;;
55007;SDS011;40902;45.116;21.296;2022-12-28T00:13:00;9.75;;;6.60;;
55007;SDS011;40902;45.116;21.296;2022-12-28T00:15:26;11.57;;;6.57;;
55007;SDS011;40902;45.116;21.296;2022-12-28T00:17:52;11.18;;;6.50;;
55007;SDS011;40902;45.116;21.296;2022-12-28T00:20:18;10.48;;;6.97;;
55007;SDS011;40902;45.116;21.296;2022-12-28T00:22:44;10.30;;;6.70;;
55007;SDS011;40902;45.116;21.296;2022-12-28T00:25:10;9.18;;;6.40;;
55007;SDS011;40902;45.116;21.296;2022-12-28T00:27:36;8.75;;;5.85;;
55007;SDS011;40902;45.116;21.296;2022-12-28T00:30:02;8.65;;;5.57;;
55007;SDS011;40902;45.116;21.296;2022-12-28T00:32:28;14.90;;;5.90;;
55007;SDS011;40902;45.116;21.296;2022-12-28T00:34:58;9.23;;;5.30;;
55007;SDS011;40902;45.116;21.296;2022-12-28T00:37:24;11.35;;;6.65;;
55007;SDS011;40902;45.116;21.296;2022-12-28T00:39:50;10.38;;;6.15;;
55007;SDS011;40902;45.116;21.296;2022-12-28T00:42:16;9.38;;;5.88;;
55007;SDS011;40902;45.116;21.296;2022-12-28T00:44:42;8.05;;;5.70;;
55007;SDS011;40902;45.116;21.296;2022-12-28T00:47:09;9.57;;;6.10;;
55007;SDS011;40902;45.116;21.296;2022-12-28T00:49:35;8.88;;;5.80;;
55007;SDS011;40902;45.116;21.296;2022-12-28T00:52:01;12.18;;;6.20;;
55007;SDS011;40902;45.116;21.296;2022-12-28T00:54:27;13.73;;;7.53;;
55007;SDS011;40902;45.116;21.296;2022-12-28T00:56:53;10.75;;;7.22;;
55007;SDS011;40902;45.116;21.296;2022-12-28T00:59:19;11.85;;;7.90;;
55007;SDS011;40902;45.116;21.296;2022-12-28T01:01:45;11.60;;;6.25;;
55007;SDS011;40902;45.116;21.296;2022-12-28T01:04:11;10.00;;;6.03;;
55007;SDS011;40902;45.116;21.296;2022-12-28T01:06:37;9.38;;;6.32;;
55007;SDS011;40902;45.116;21.296;2022-12-28T01:09:04;11.68;;;7.10;;
55007;SDS011;40902;45.116;21.296;2022-12-28T01:11:30;11.77;;;8.25;;
55007;SDS011;40902;45.116;21.296;2022-12-28T01:13:57;22.98;;;13.40;;
55007;SDS011;40902;45.116;21.296;2022-12-28T01:16:28;17.08;;;11.38;;
55007;SDS011;40902;45.116;21.296;2022-12-28T01:18:55;16.67;;;9.18;;
55007;SDS011;40902;45.116;21.296;2022-12-28T01:21:23;24.05;;;14.63;;
55007;SDS011;40902;45.116;21.296;2022-12-28T01:23:51;37.72;;;22.15;;
55007;SDS011;40902;45.116;21.296;2022-12-28T01:26:17;30.73;;;17.27;;
55007;SDS011;40902;45.116;21.296;2022-12-28T01:28:43;29.10;;;16.23;;
55007;SDS011;40902;45.116;21.296;2022-12-28T01:31:11;28.95;;;17.60;;
55007;SDS011;40902;45.116;21.296;2022-12-28T01:33:37;29.38;;;16.90;;
55007;SDS011;40902;45.116;21.296;2022-12-28T01:36:20;33.50;;;18.45;;
55007;SDS011;40902;45.116;21.296;2022-12-28T01:38:47;26.27;;;16.10;;
55007;SDS011;40902;45.116;21.296;2022-12-28T01:41:14;29.83;;;17.67;;
55007;SDS011;40902;45.116;21.296;2022-12-28T01:46:16;25.27;;;16.63;;
55007;SDS011;40902;45.116;21.296;2022-12-28T01:48:54;26.17;;;16.75;;
55007;SDS011;40902;45.116;21.296;2022-12-28T01:51:21;31.88;;;17.27;;
55007;SDS011;40902;45.116;21.296;2022-12-28T01:53:47;27.60;;;16.85;;
55007;SDS011;40902;45.116;21.296;2022-12-28T01:56:15;30.80;;;17.42;;
55007;SDS011;40902;45.116;21.296;2022-12-28T01:58:41;30.38;;;17.27;;
55007;SDS011;40902;45.116;21.296;2022-12-28T02:01:08;27.70;;;16.23;;
55007;SDS011;40902;45.116;21.296;2022-12-28T02:03:34;37.50;;;20.73;;
55007;SDS011;40902;45.116;21.296;2022-12-28T02:06:02;40.70;;;20.17;;
55007;SDS011;40902;45.116;21.296;2022-12-28T02:10:59;32.67;;;18.70;;
55007;SDS011;40902;45.116;21.296;2022-12-28T02:13:25;27.98;;;17.35;;
55007;SDS011;40902;45.116;21.296;2022-12-28T02:15:51;31.65;;;16.73;;
55007;SDS011;40902;45.116;21.296;2022-12-28T02:18:18;26.55;;;16.17;;
55007;SDS011;40902;45.116;21.296;2022-12-28T02:20:58;25.50;;;12.73;;
55007;SDS011;40902;45.116;21.296;2022-12-28T02:23:44;29.77;;;15.27;;
55007;SDS011;40902;45.116;21.296;2022-12-28T02:31:38;20.52;;;11.55;;
55007;SDS011;40902;45.116;21.296;2022-12-28T02:36:54;19.48;;;11.10;;
55007;SDS011;40902;45.116;21.296;2022-12-28T02:39:23;16.13;;;9.60;;
55007;SDS011;40902;45.116;21.296;2022-12-28T02:41:52;17.33;;;10.43;;
55007;SDS011;40902;45.116;21.296;2022-12-28T02:44:19;15.05;;;9.35;;
55007;SDS011;40902;45.116;21.296;2022-12-28T02:47:04;20.52;;;10.43;;
55007;SDS011;40902;45.116;21.296;2022-12-28T02:49:48;17.10;;;11.68;;
55007;SDS011;40902;45.116;21.296;2022-12-28T02:55:09;21.90;;;12.35;;
55007;SDS011;40902;45.116;21.296;2022-12-28T03:00:28;22.38;;;13.32;;
55007;SDS011;40902;45.116;21.296;2022-12-28T03:08:43;20.27;;;12.95;;
55007;SDS011;40902;45.116;21.296;2022-12-28T03:11:12;22.58;;;12.23;;
55007;SDS011;40902;45.116;21.296;2022-12-28T03:13:47;18.98;;;10.68;;
55007;SDS011;40902;45.116;21.296;2022-12-28T03:16:28;19.15;;;11.48;;
55007;SDS011;40902;45.116;21.296;2022-12-28T03:19:18;18.40;;;11.25;;
55007;SDS011;40902;45.116;21.296;2022-12-28T03:22:05;16.67;;;10.80;;
55007;SDS011;40902;45.116;21.296;2022-12-28T03:24:51;17.60;;;10.82;;
55007;SDS011;40902;45.116;21.296;2022-12-28T03:27:36;30.10;;;17.45;;
55007;SDS011;40902;45.116;21.296;2022-12-28T03:30:21;17.00;;;9.65;;
55007;SDS011;40902;45.116;21.296;2022-12-28T03:33:06;18.23;;;10.15;;
55007;SDS011;40902;45.116;21.296;2022-12-28T03:35:54;21.85;;;13.02;;
55007;SDS011;40902;45.116;21.296;2022-12-28T03:38:28;29.90;;;15.25;;
55007;SDS011;40902;45.116;21.296;2022-12-28T03:41:01;22.58;;;12.93;;
55007;SDS011;40902;45.116;21.296;2022-12-28T03:43:34;20.92;;;12.32;;
55007;SDS011;40902;45.116;21.296;2022-12-28T03:48:33;24.10;;;12.45;;
55007;SDS011;40902;45.116;21.296;2022-12-28T03:51:01;24.73;;;11.20;;
55007;SDS011;40902;45.116;21.296;2022-12-28T03:53:29;23.35;;;12.65;;
55007;SDS011;40902;45.116;21.296;2022-12-28T03:56:04;20.50;;;11.82;;
55007;SDS011;40902;45.116;21.296;2022-12-28T03:58:30;23.15;;;11.23;;
55007;SDS011;40902;45.116;21.296;2022-12-28T04:00:56;19.88;;;10.85;;
55007;SDS011;40902;45.116;21.296;2022-12-28T04:03:23;18.23;;;10.15;;
55007;SDS011;40902;45.116;21.296;2022-12-28T04:05:49;17.08;;;9.50;;
55007;SDS011;40902;45.116;21.296;2022-12-28T04:08:15;16.58;;;9.85;;
55007;SDS011;40902;45.116;21.296;2022-12-28T04:10:41;16.00;;;9.68;;
55007;SDS011;40902;45.116;21.296;2022-12-28T04:13:07;18.05;;;9.30;;
55007;SDS011;40902;45.116;21.296;2022-12-28T04:15:33;14.68;;;9.75;;
55007;SDS011;40902;45.116;21.296;2022-12-28T04:17:59;14.65;;;9.77;;
55007;SDS011;40902;45.116;21.296;2022-12-28T04:20:25;14.82;;;8.93;;
55007;SDS011;40902;45.116;21.296;2022-12-28T04:22:51;14.95;;;8.80;;
55007;SDS011;40902;45.116;21.296;2022-12-28T04:25:18;14.82;;;10.45;;
55007;SDS011;40902;45.116;21.296;2022-12-28T04:27:44;13.50;;;8.38;;
55007;SDS011;40902;45.116;21.296;2022-12-28T04:30:10;15.90;;;8.00;;
55007;SDS011;40902;45.116;21.296;2022-12-28T04:32:37;12.75;;;7.85;;
55007;SDS011;40902;45.116;21.296;2022-12-28T04:35:03;13.38;;;8.38;;
55007;SDS011;40902;45.116;21.296;2022-12-28T04:37:29;11.93;;;6.93;;
55007;SDS011;40902;45.116;21.296;2022-12-28T04:39:55;10.82;;;7.00;;
55007;SDS011;40902;45.116;21.296;2022-12-28T04:42:22;11.95;;;6.65;;
55007;SDS011;40902;45.116;21.296;2022-12-28T04:44:48;12.10;;;6.85;;
55007;SDS011;40902;45.116;21.296;2022-12-28T04:47:14;10.25;;;6.40;;
55007;SDS011;40902;45.116;21.296;2022-12-28T04:49:40;10.90;;;6.65;;
55007;SDS011;40902;45.116;21.296;2022-12-28T04:52:06;13.40;;;7.57;;
55007;SDS011;40902;45.116;21.296;2022-12-28T04:54:32;11.55;;;7.75;;
55007;SDS011;40902;45.116;21.296;2022-12-28T04:56:58;11.13;;;7.07;;
55007;SDS011;40902;45.116;21.296;2022-12-28T04:59:24;11.48;;;6.60;;
55007;SDS011;40902;45.116;21.296;2022-12-28T05:01:50;12.30;;;7.55;;
55007;SDS011;40902;45.116;21.296;2022-12-28T05:04:16;12.23;;;7.45;;
55007;SDS011;40902;45.116;21.296;2022-12-28T05:06:42;11.10;;;7.15;;
55007;SDS011;40902;45.116;21.296;2022-12-28T05:09:08;11.95;;;7.05;;
55007;SDS011;40902;45.116;21.296;2022-12-28T05:11:34;12.35;;;6.88;;
55007;SDS011;40902;45.116;21.296;2022-12-28T05:14:00;12.52;;;6.40;;
55007;SDS011;40902;45.116;21.296;2022-12-28T05:16:27;18.40;;;7.38;;
55007;SDS011;40902;45.116;21.296;2022-12-28T05:18:56;12.00;;;7.68;;
55007;SDS011;40902;45.116;21.296;2022-12-28T05:21:23;13.05;;;6.82;;
55007;SDS011;40902;45.116;21.296;2022-12-28T05:23:50;21.95;;;14.93;;
55007;SDS011;40902;45.116;21.296;2022-12-28T05:26:18;65.63;;;41.85;;
55007;SDS011;40902;45.116;21.296;2022-12-28T05:28:44;21.23;;;13.52;;
55007;SDS011;40902;45.116;21.296;2022-12-28T05:31:12;19.33;;;13.25;;
55007;SDS011;40902;45.116;21.296;2022-12-28T05:33:38;25.27;;;16.20;;
55007;SDS011;40902;45.116;21.296;2022-12-28T05:36:05;29.95;;;19.38;;
55007;SDS011;40902;45.116;21.296;2022-12-28T05:38:31;21.52;;;13.82;;
55007;SDS011;40902;45.116;21.296;2022-12-28T05:41:31;18.10;;;11.18;;
55007;SDS011;40902;45.116;21.296;2022-12-28T05:43:50;13.93;;;9.63;;
55007;SDS011;40902;45.116;21.296;2022-12-28T05:46:20;18.67;;;10.35;;
55007;SDS011;40902;45.116;21.296;2022-12-28T05:48:48;12.43;;;8.15;;
55007;SDS011;40902;45.116;21.296;2022-12-28T05:51:15;15.70;;;9.00;;
55007;SDS011;40902;45.116;21.296;2022-12-28T05:53:42;15.35;;;8.63;;
55007;SDS011;40902;45.116;21.296;2022-12-28T05:58:36;15.45;;;8.98;;
55007;SDS011;40902;45.116;21.296;2022-12-28T06:01:05;17.90;;;9.73;;
55007;SDS011;40902;45.116;21.296;2022-12-28T06:03:42;15.60;;;9.10;;
55007;SDS011;40902;45.116;21.296;2022-12-28T06:06:10;17.02;;;9.80;;
55007;SDS011;40902;45.116;21.296;2022-12-28T06:08:40;16.67;;;9.52;;
55007;SDS011;40902;45.116;21.296;2022-12-28T06:11:08;14.30;;;10.00;;
55007;SDS011;40902;45.116;21.296;2022-12-28T06:13:37;20.83;;;11.07;;
55007;SDS011;40902;45.116;21.296;2022-12-28T06:16:04;20.98;;;13.40;;
55007;SDS011;40902;45.116;21.296;2022-12-28T06:18:34;21.20;;;13.68;;
55007;SDS011;40902;45.116;21.296;2022-12-28T06:21:03;19.90;;;13.27;;
55007;SDS011;40902;45.116;21.296;2022-12-28T06:23:31;54.28;;;26.42;;
55007;SDS011;40902;45.116;21.296;2022-12-28T06:25:57;40.10;;;20.30;;
55007;SDS011;40902;45.116;21.296;2022-12-28T06:28:24;23.25;;;14.20;;
55007;SDS011;40902;45.116;21.296;2022-12-28T06:30:50;20.77;;;13.82;;
55007;SDS011;40902;45.116;21.296;2022-12-28T06:33:16;25.15;;;15.35;;
55007;SDS011;40902;45.116;21.296;2022-12-28T06:35:42;38.33;;;20.02;;
55007;SDS011;40902;45.116;21.296;2022-12-28T06:38:07;57.30;;;32.05;;
55007;SDS011;40902;45.116;21.296;2022-12-28T06:40:33;60.10;;;31.38;;
55007;SDS011;40902;45.116;21.296;2022-12-28T06:42:59;77.75;;;40.28;;
55007;SDS011;40902;45.116;21.296;2022-12-28T06:45:25;56.17;;;33.65;;
55007;SDS011;40902;45.116;21.296;2022-12-28T06:47:52;56.08;;;30.67;;
55007;SDS011;40902;45.116;21.296;2022-12-28T06:50:18;53.45;;;30.90;;
55007;SDS011;40902;45.116;21.296;2022-12-28T06:52:44;47.67;;;28.08;;
55007;SDS011;40902;45.116;21.296;2022-12-28T06:55:10;46.78;;;26.58;;
55007;SDS011;40902;45.116;21.296;2022-12-28T06:57:36;39.08;;;24.33;;
55007;SDS011;40902;45.116;21.296;2022-12-28T07:00:03;43.30;;;23.70;;
55007;SDS011;40902;45.116;21.296;2022-12-28T07:02:29;37.95;;;21.48;;
55007;SDS011;40902;45.116;21.296;2022-12-28T07:04:55;32.33;;;19.13;;
55007;SDS011;40902;45.116;21.296;2022-12-28T07:07:21;33.70;;;20.13;;
55007;SDS011;40902;45.116;21.296;2022-12-28T07:09:47;33.38;;;18.73;;
55007;SDS011;40902;45.116;21.296;2022-12-28T07:12:13;36.80;;;21.02;;
55007;SDS011;40902;45.116;21.296;2022-12-28T07:14:39;38.22;;;18.63;;
55007;SDS011;40902;45.116;21.296;2022-12-28T07:17:05;29.17;;;16.38;;
55007;SDS011;40902;45.116;21.296;2022-12-28T07:19:31;30.80;;;14.35;;
55007;SDS011;40902;45.116;21.296;2022-12-28T07:21:57;26.83;;;13.18;;
55007;SDS011;40902;45.116;21.296;2022-12-28T07:24:23;24.45;;;14.05;;
55007;SDS011;40902;45.116;21.296;2022-12-28T07:26:49;24.15;;;14.00;;
55007;SDS011;40902;45.116;21.296;2022-12-28T07:29:15;28.25;;;13.95;;
55007;SDS011;40902;45.116;21.296;2022-12-28T07:31:41;29.27;;;14.35;;
55007;SDS011;40902;45.116;21.296;2022-12-28T07:34:07;23.00;;;13.05;;
55007;SDS011;40902;45.116;21.296;2022-12-28T07:36:34;22.65;;;13.23;;
55007;SDS011;40902;45.116;21.296;2022-12-28T07:39:00;21.58;;;12.45;;
55007;SDS011;40902;45.116;21.296;2022-12-28T07:41:29;20.92;;;12.07;;
55007;SDS011;40902;45.116;21.296;2022-12-28T07:44:04;21.98;;;11.63;;
55007;SDS011;40902;45.116;21.296;2022-12-28T07:46:31;18.92;;;11.60;;
55007;SDS011;40902;45.116;21.296;2022-12-28T07:48:58;20.75;;;11.38;;
55007;SDS011;40902;45.116;21.296;2022-12-28T07:51:28;17.05;;;10.90;;
55007;SDS011;40902;45.116;21.296;2022-12-28T07:53:55;20.00;;;10.52;;
55007;SDS011;40902;45.116;21.296;2022-12-28T07:56:22;16.80;;;9.65;;
55007;SDS011;40902;45.116;21.296;2022-12-28T07:58:49;17.70;;;9.98;;
55007;SDS011;40902;45.116;21.296;2022-12-28T08:01:17;20.88;;;10.65;;
55007;SDS011;40902;45.116;21.296;2022-12-28T08:03:45;14.98;;;9.75;;
55007;SDS011;40902;45.116;21.296;2022-12-28T08:06:12;18.40;;;10.35;;
55007;SDS011;40902;45.116;21.296;2022-12-28T08:08:47;20.30;;;10.82;;
55007;SDS011;40902;45.116;21.296;2022-12-28T08:11:15;20.30;;;12.60;;
55007;SDS011;40902;45.116;21.296;2022-12-28T08:13:43;19.50;;;12.70;;
55007;SDS011;40902;45.116;21.296;2022-12-28T08:16:11;21.58;;;12.43;;
55007;SDS011;40902;45.116;21.296;2022-12-28T08:18:38;18.45;;;11.88;;
55007;SDS011;40902;45.116;21.296;2022-12-28T08:21:07;22.00;;;11.90;;
55007;SDS011;40902;45.116;21.296;2022-12-28T08:23:37;19.10;;;11.45;;
55007;SDS011;40902;45.116;21.296;2022-12-28T08:26:06;17.95;;;11.10;;
55007;SDS011;40902;45.116;21.296;2022-12-28T08:28:53;16.95;;;9.77;;
55007;SDS011;40902;45.116;21.296;2022-12-28T08:31:22;14.20;;;9.35;;
55007;SDS011;40902;45.116;21.296;2022-12-28T08:33:49;15.95;;;9.40;;
55007;SDS011;40902;45.116;21.296;2022-12-28T08:36:16;16.10;;;8.85;;
55007;SDS011;40902;45.116;21.296;2022-12-28T08:38:42;15.45;;;8.50;;
55007;SDS011;40902;45.116;21.296;2022-12-28T08:41:13;14.40;;;8.30;;
55007;SDS011;40902;45.116;21.296;2022-12-28T08:43:41;14.52;;;8.15;;
55007;SDS011;40902;45.116;21.296;2022-12-28T08:46:17;18.00;;;9.60;;
55007;SDS011;40902;45.116;21.296;2022-12-28T08:48:45;11.52;;;8.07;;
55007;SDS011;40902;45.116;21.296;2022-12-28T08:51:15;13.00;;;8.00;;
55007;SDS011;40902;45.116;21.296;2022-12-28T08:53:44;11.73;;;8.05;;
55007;SDS011;40902;45.116;21.296;2022-12-28T08:56:15;13.98;;;8.27;;
55007;SDS011;40902;45.116;21.296;2022-12-28T08:58:46;14.27;;;8.13;;
55007;SDS011;40902;45.116;21.296;2022-12-28T09:03:45;14.15;;;8.48;;
55007;SDS011;40902;45.116;21.296;2022-12-28T09:06:13;14.45;;;8.50;;
55007;SDS011;40902;45.116;21.296;2022-12-28T09:08:41;12.07;;;7.65;;
55007;SDS011;40902;45.116;21.296;2022-12-28T09:11:08;13.85;;;8.63;;
55007;SDS011;40902;45.116;21.296;2022-12-28T09:13:35;10.68;;;7.43;;
55007;SDS011;40902;45.116;21.296;2022-12-28T09:16:05;8.75;;;6.43;;
55007;SDS011;40902;45.116;21.296;2022-12-28T09:18:33;9.30;;;6.18;;
55007;SDS011;40902;45.116;21.296;2022-12-28T09:21:06;8.20;;;6.15;;
55007;SDS011;40902;45.116;21.296;2022-12-28T09:23:32;20.83;;;14.73;;
55007;SDS011;40902;45.116;21.296;2022-12-28T09:26:03;23.92;;;14.10;;
55007;SDS011;40902;45.116;21.296;2022-12-28T09:28:29;21.27;;;13.07;;
55007;SDS011;40902;45.116;21.296;2022-12-28T09:30:55;20.17;;;13.75;;
55007;SDS011;40902;45.116;21.296;2022-12-28T09:33:20;20.60;;;12.95;;
55007;SDS011;40902;45.116;21.296;2022-12-28T09:36:05;20.42;;;12.57;;
55007;SDS011;40902;45.116;21.296;2022-12-28T09:38:31;17.98;;;12.18;;
55007;SDS011;40902;45.116;21.296;2022-12-28T09:40:57;17.58;;;11.52;;
55007;SDS011;40902;45.116;21.296;2022-12-28T09:43:23;20.42;;;12.50;;
55007;SDS011;40902;45.116;21.296;2022-12-28T09:45:51;18.92;;;12.75;;
55007;SDS011;40902;45.116;21.296;2022-12-28T09:48:19;17.27;;;10.50;;
55007;SDS011;40902;45.116;21.296;2022-12-28T09:50:48;14.95;;;9.32;;
55007;SDS011;40902;45.116;21.296;2022-12-28T09:56:01;12.52;;;8.30;;
55007;SDS011;40902;45.116;21.296;2022-12-28T09:58:30;12.82;;;7.82;;
55007;SDS011;40902;45.116;21.296;2022-12-28T10:01:01;15.02;;;8.25;;
55007;SDS011;40902;45.116;21.296;2022-12-28T10:03:35;13.35;;;8.25;;
55007;SDS011;40902;45.116;21.296;2022-12-28T10:06:08;15.25;;;8.50;;
55007;SDS011;40902;45.116;21.296;2022-12-28T10:08:51;12.48;;;7.78;;
55007;SDS011;40902;45.116;21.296;2022-12-28T10:11:20;15.60;;;8.98;;
55007;SDS011;40902;45.116;21.296;2022-12-28T10:13:53;12.23;;;7.57;;
55007;SDS011;40902;45.116;21.296;2022-12-28T10:16:28;28.27;;;15.95;;
55007;SDS011;40902;45.116;21.296;2022-12-28T10:19:00;16.92;;;8.75;;
55007;SDS011;40902;45.116;21.296;2022-12-28T10:21:27;15.40;;;8.98;;
55007;SDS011;40902;45.116;21.296;2022-12-28T10:23:56;12.00;;;6.90;;
55007;SDS011;40902;45.116;21.296;2022-12-28T10:26:23;10.30;;;7.15;;
55007;SDS011;40902;45.116;21.296;2022-12-28T10:28:50;13.13;;;7.97;;
55007;SDS011;40902;45.116;21.296;2022-12-28T10:33:56;13.93;;;8.98;;
55007;SDS011;40902;45.116;21.296;2022-12-28T10:36:22;14.40;;;9.25;;
55007;SDS011;40902;45.116;21.296;2022-12-28T10:38:49;16.17;;;9.90;;
55007;SDS011;40902;45.116;21.296;2022-12-28T10:41:18;13.25;;;9.00;;
55007;SDS011;40902;45.116;21.296;2022-12-28T10:43:46;13.38;;;8.50;;
55007;SDS011;40902;45.116;21.296;2022-12-28T10:46:16;17.77;;;9.80;;
55007;SDS011;40902;45.116;21.296;2022-12-28T10:48:45;15.07;;;8.80;;
55007;SDS011;40902;45.116;21.296;2022-12-28T10:51:15;14.75;;;10.35;;
55007;SDS011;40902;45.116;21.296;2022-12-28T10:53:44;13.95;;;8.98;;
55007;SDS011;40902;45.116;21.296;2022-12-28T10:56:22;15.43;;;9.25;;
55007;SDS011;40902;45.116;21.296;2022-12-28T10:58:53;15.15;;;8.30;;
55007;SDS011;40902;45.116;21.296;2022-12-28T11:01:43;15.40;;;8.93;;
55007;SDS011;40902;45.116;21.296;2022-12-28T11:04:18;13.65;;;7.97;;
55007;SDS011;40902;45.116;21.296;2022-12-28T11:09:33;10.80;;;6.88;;
55007;SDS011;40902;45.116;21.296;2022-12-28T11:14:48;10.43;;;6.47;;
55007;SDS011;40902;45.116;21.296;2022-12-28T11:17:23;10.27;;;6.50;;
55007;SDS011;40902;45.116;21.296;2022-12-28T11:22:23;10.57;;;5.95;;
55007;SDS011;40902;45.116;21.296;2022-12-28T11:24:51;11.18;;;4.88;;
55007;SDS011;40902;45.116;21.296;2022-12-28T11:27:18;9.48;;;4.95;;
55007;SDS011;40902;45.116;21.296;2022-12-28T11:29:48;7.43;;;4.45;;
55007;SDS011;40902;45.116;21.296;2022-12-28T11:34:49;8.88;;;5.05;;
55007;SDS011;40902;45.116;21.296;2022-12-28T11:37:16;11.40;;;5.05;;
55007;SDS011;40902;45.116;21.296;2022-12-28T11:39:43;10.55;;;6.10;;
55007;SDS011;40902;45.116;21.296;2022-12-28T11:42:11;9.32;;;6.05;;
55007;SDS011;40902;45.116;21.296;2022-12-28T11:44:58;11.18;;;6.00;;
55007;SDS011;40902;45.116;21.296;2022-12-28T11:47:25;13.13;;;6.70;;
55007;SDS011;40902;45.116;21.296;2022-12-28T11:52:57;16.05;;;9.07;;
55007;SDS011;40902;45.116;21.296;2022-12-28T11:57:52;23.63;;;13.23;;
55007;SDS011;40902;45.116;21.296;2022-12-28T12:10:39;19.92;;;12.00;;
55007;SDS011;40902;45.116;21.296;2022-12-28T12:16:40;15.65;;;10.57;;
55007;SDS011;40902;45.116;21.296;2022-12-28T12:18:59;17.17;;;10.48;;
55007;SDS011;40902;45.116;21.296;2022-12-28T12:21:32;19.65;;;11.05;;
55007;SDS011;40902;45.116;21.296;2022-12-28T12:27:03;15.75;;;10.88;;
55007;SDS011;40902;45.116;21.296;2022-12-28T12:29:40;17.00;;;10.65;;
55007;SDS011;40902;45.116;21.296;2022-12-28T12:35:13;11.18;;;6.93;;
55007;SDS011;40902;45.116;21.296;2022-12-28T12:37:45;14.00;;;8.25;;
55007;SDS011;40902;45.116;21.296;2022-12-28T12:51:21;12.63;;;6.57;;
55007;SDS011;40902;45.116;21.296;2022-12-28T12:56:52;9.35;;;5.60;;
55007;SDS011;40902;45.116;21.296;2022-12-28T12:59:50;9.82;;;5.47;;
55007;SDS011;40902;45.116;21.296;2022-12-28T13:04:49;10.90;;;4.82;;
55007;SDS011;40902;45.116;21.296;2022-12-28T13:07:22;10.63;;;5.88;;
55007;SDS011;40902;45.116;21.296;2022-12-28T13:09:53;9.88;;;5.65;;
55007;SDS011;40902;45.116;21.296;2022-12-28T13:12:22;11.68;;;6.45;;
55007;SDS011;40902;45.116;21.296;2022-12-28T13:14:54;8.55;;;5.30;;
55007;SDS011;40902;45.116;21.296;2022-12-28T13:17:23;11.90;;;6.18;;
55007;SDS011;40902;45.116;21.296;2022-12-28T13:19:49;9.27;;;5.90;;
55007;SDS011;40902;45.116;21.296;2022-12-28T13:22:28;9.95;;;5.85;;
55007;SDS011;40902;45.116;21.296;2022-12-28T13:24:57;14.98;;;8.57;;
55007;SDS011;40902;45.116;21.296;2022-12-28T13:27:24;9.52;;;6.03;;
55007;SDS011;40902;45.116;21.296;2022-12-28T13:29:59;10.30;;;5.65;;
55007;SDS011;40902;45.116;21.296;2022-12-28T13:32:31;11.18;;;5.95;;
55007;SDS011;40902;45.116;21.296;2022-12-28T13:34:59;8.02;;;5.63;;
55007;SDS011;40902;45.116;21.296;2022-12-28T13:37:25;11.07;;;5.95;;
55007;SDS011;40902;45.116;21.296;2022-12-28T13:40:06;12.13;;;5.95;;
55007;SDS011;40902;45.116;21.296;2022-12-28T13:46:05;11.68;;;6.82;;
55007;SDS011;40902;45.116;21.296;2022-12-28T13:48:34;11.25;;;6.57;;
55007;SDS011;40902;45.116;21.296;2022-12-28T13:51:06;11.27;;;6.45;;
55007;SDS011;40902;45.116;21.296;2022-12-28T13:53:34;12.57;;;6.70;;
55007;SDS011;40902;45.116;21.296;2022-12-28T13:56:01;11.52;;;7.30;;
55007;SDS011;40902;45.116;21.296;2022-12-28T13:58:33;13.07;;;6.43;;
55007;SDS011;40902;45.116;21.296;2022-12-28T14:01:07;9.32;;;6.50;;
55007;SDS011;40902;45.116;21.296;2022-12-28T14:03:37;9.65;;;6.60;;
55007;SDS011;40902;45.116;21.296;2022-12-28T14:06:04;11.00;;;6.25;;
55007;SDS011;40902;45.116;21.296;2022-12-28T14:08:35;10.93;;;5.93;;
55007;SDS011;40902;45.116;21.296;2022-12-28T14:11:03;9.90;;;5.05;;
55007;SDS011;40902;45.116;21.296;2022-12-28T14:13:33;11.48;;;5.82;;
55007;SDS011;40902;45.116;21.296;2022-12-28T14:16:00;9.02;;;5.70;;
55007;SDS011;40902;45.116;21.296;2022-12-28T14:18:28;10.35;;;5.45;;
55007;SDS011;40902;45.116;21.296;2022-12-28T14:20:55;11.93;;;5.97;;
55007;SDS011;40902;45.116;21.296;2022-12-28T14:23:23;9.00;;;5.60;;
55007;SDS011;40902;45.116;21.296;2022-12-28T14:25:54;13.57;;;5.68;;
55007;SDS011;40902;45.116;21.296;2022-12-28T14:28:29;12.55;;;4.97;;
55007;SDS011;40902;45.116;21.296;2022-12-28T14:30:59;12.18;;;7.15;;
55007;SDS011;40902;45.116;21.296;2022-12-28T14:33:26;13.77;;;7.22;;
55007;SDS011;40902;45.116;21.296;2022-12-28T14:35:55;14.93;;;7.80;;
55007;SDS011;40902;45.116;21.296;2022-12-28T14:38:33;11.23;;;7.38;;
55007;SDS011;40902;45.116;21.296;2022-12-28T14:41:02;12.45;;;7.05;;
55007;SDS011;40902;45.116;21.296;2022-12-28T14:43:35;10.98;;;6.70;;
55007;SDS011;40902;45.116;21.296;2022-12-28T14:48:59;10.32;;;5.60;;
55007;SDS011;40902;45.116;21.296;2022-12-28T14:51:45;17.10;;;7.72;;
55007;SDS011;40902;45.116;21.296;2022-12-28T14:56:41;9.77;;;6.70;;
55007;SDS011;40902;45.116;21.296;2022-12-28T14:59:15;11.93;;;6.05;;
55007;SDS011;40902;45.116;21.296;2022-12-28T15:01:54;11.98;;;6.22;;
55007;SDS011;40902;45.116;21.296;2022-12-28T15:04:24;9.98;;;5.78;;
55007;SDS011;40902;45.116;21.296;2022-12-28T15:06:51;15.20;;;8.27;;
55007;SDS011;40902;45.116;21.296;2022-12-28T15:09:17;13.07;;;8.35;;
55007;SDS011;40902;45.116;21.296;2022-12-28T15:11:43;19.05;;;11.00;;
55007;SDS011;40902;45.116;21.296;2022-12-28T15:14:11;24.25;;;15.18;;
55007;SDS011;40902;45.116;21.296;2022-12-28T15:16:37;24.60;;;13.45;;
55007;SDS011;40902;45.116;21.296;2022-12-28T15:19:03;23.65;;;13.40;;
55007;SDS011;40902;45.116;21.296;2022-12-28T15:21:29;25.77;;;16.25;;
55007;SDS011;40902;45.116;21.296;2022-12-28T15:23:55;48.50;;;29.52;;
55007;SDS011;40902;45.116;21.296;2022-12-28T15:26:21;51.53;;;30.60;;
55007;SDS011;40902;45.116;21.296;2022-12-28T15:28:48;33.47;;;20.25;;
55007;SDS011;40902;45.116;21.296;2022-12-28T15:31:15;30.85;;;18.15;;
55007;SDS011;40902;45.116;21.296;2022-12-28T15:33:42;49.90;;;26.45;;
55007;SDS011;40902;45.116;21.296;2022-12-28T15:36:13;42.22;;;27.15;;
55007;SDS011;40902;45.116;21.296;2022-12-28T15:38:40;57.20;;;31.85;;
55007;SDS011;40902;45.116;21.296;2022-12-28T15:41:06;40.33;;;23.23;;
55007;SDS011;40902;45.116;21.296;2022-12-28T15:43:52;33.17;;;20.95;;
55007;SDS011;40902;45.116;21.296;2022-12-28T15:46:17;27.60;;;17.75;;
55007;SDS011;40902;45.116;21.296;2022-12-28T15:48:43;28.13;;;19.17;;
55007;SDS011;40902;45.116;21.296;2022-12-28T15:51:09;29.33;;;19.52;;
55007;SDS011;40902;45.116;21.296;2022-12-28T15:53:35;28.45;;;17.80;;
55007;SDS011;40902;45.116;21.296;2022-12-28T15:56:00;23.25;;;16.25;;
55007;SDS011;40902;45.116;21.296;2022-12-28T15:58:27;26.27;;;17.75;;
55007;SDS011;40902;45.116;21.296;2022-12-28T16:00:53;27.63;;;17.38;;
55007;SDS011;40902;45.116;21.296;2022-12-28T16:03:19;29.02;;;18.50;;
55007;SDS011;40902;45.116;21.296;2022-12-28T16:05:45;24.40;;;14.70;;